Triumph, Louisiana
Current Conditions -  °F | °C
As of 8:51 AM on Sunday 21 Dec 2014 (Local Time) from KBVE Reporting Station
Overcast Overcast  
Wind Chill: 56°   Ceiling: 900
Heat Index: 56°   Visibility: 8mi
Dew Point: 53°   Wind: 6mph
Humidity: 90%   Direction: 30°NNE
Pressure: 30.11"   Gusts: NA
Location:  29.2996°N, 89.4367°W
Report Text: KBVE 211451Z AUTO 03005KT 8SM OVC009 13/12 A3011 RMK AO2 SLP196 T01330117 53007
Loading
Personal Weather Stations






























Interactive Weather Map New forecast layout! Learn more

10-Day Weather Forecast

Advertisements
Track Severe Weather on mobile